sensor_id;sensor_type;location;lat;lon;timestamp;P1;durP1;ratioP1;P2;durP2;ratioP2
43793;SDS011;29414;44.798;20.366;2022-10-16T00:01:43;3.58;;;2.40;;
43793;SDS011;29414;44.798;20.366;2022-10-16T00:05:44;5.20;;;2.63;;
43793;SDS011;29414;44.798;20.366;2022-10-16T00:09:45;3.03;;;2.65;;
43793;SDS011;29414;44.798;20.366;2022-10-16T00:13:46;4.07;;;2.88;;
43793;SDS011;29414;44.798;20.366;2022-10-16T00:17:46;5.30;;;2.75;;
43793;SDS011;29414;44.798;20.366;2022-10-16T00:21:46;4.10;;;2.60;;
43793;SDS011;29414;44.798;20.366;2022-10-16T00:25:57;4.20;;;2.42;;
43793;SDS011;29414;44.798;20.366;2022-10-16T00:29:57;7.70;;;2.70;;
43793;SDS011;29414;44.798;20.366;2022-10-16T00:33:58;3.83;;;2.63;;
43793;SDS011;29414;44.798;20.366;2022-10-16T00:37:58;3.97;;;2.05;;
43793;SDS011;29414;44.798;20.366;2022-10-16T00:41:58;2.67;;;2.25;;
43793;SDS011;29414;44.798;20.366;2022-10-16T00:45:59;3.58;;;2.78;;
43793;SDS011;29414;44.798;20.366;2022-10-16T00:50:03;6.55;;;2.05;;
43793;SDS011;29414;44.798;20.366;2022-10-16T00:54:12;4.18;;;2.33;;
43793;SDS011;29414;44.798;20.366;2022-10-16T00:58:13;5.95;;;2.65;;
43793;SDS011;29414;44.798;20.366;2022-10-16T01:02:15;2.95;;;2.40;;
43793;SDS011;29414;44.798;20.366;2022-10-16T01:14:27;4.40;;;2.47;;
43793;SDS011;29414;44.798;20.366;2022-10-16T01:31:10;6.05;;;2.60;;
43793;SDS011;29414;44.798;20.366;2022-10-16T01:35:17;4.30;;;2.20;;
43793;SDS011;29414;44.798;20.366;2022-10-16T01:39:19;8.48;;;2.58;;
43793;SDS011;29414;44.798;20.366;2022-10-16T01:43:22;3.63;;;2.20;;
43793;SDS011;29414;44.798;20.366;2022-10-16T01:47:24;6.95;;;2.60;;
43793;SDS011;29414;44.798;20.366;2022-10-16T01:51:25;4.40;;;2.13;;
43793;SDS011;29414;44.798;20.366;2022-10-16T01:55:31;2.20;;;2.00;;
43793;SDS011;29414;44.798;20.366;2022-10-16T01:59:32;3.65;;;1.98;;
43793;SDS011;29414;44.798;20.366;2022-10-16T02:03:36;3.97;;;2.08;;
43793;SDS011;29414;44.798;20.366;2022-10-16T02:07:37;6.53;;;2.28;;
43793;SDS011;29414;44.798;20.366;2022-10-16T02:11:38;2.65;;;2.10;;
43793;SDS011;29414;44.798;20.366;2022-10-16T02:15:38;5.28;;;2.45;;
43793;SDS011;29414;44.798;20.366;2022-10-16T02:19:38;3.53;;;2.42;;
43793;SDS011;29414;44.798;20.366;2022-10-16T02:28:07;4.47;;;2.33;;
43793;SDS011;29414;44.798;20.366;2022-10-16T02:32:06;3.85;;;2.03;;
43793;SDS011;29414;44.798;20.366;2022-10-16T02:36:07;9.32;;;2.67;;
43793;SDS011;29414;44.798;20.366;2022-10-16T02:40:08;4.57;;;2.30;;
43793;SDS011;29414;44.798;20.366;2022-10-16T02:44:08;3.08;;;2.25;;
43793;SDS011;29414;44.798;20.366;2022-10-16T02:48:08;7.95;;;3.08;;
43793;SDS011;29414;44.798;20.366;2022-10-16T02:52:09;3.75;;;2.55;;
43793;SDS011;29414;44.798;20.366;2022-10-16T02:56:09;7.65;;;2.33;;
43793;SDS011;29414;44.798;20.366;2022-10-16T03:00:10;7.32;;;2.92;;
43793;SDS011;29414;44.798;20.366;2022-10-16T03:04:11;3.58;;;1.95;;
43793;SDS011;29414;44.798;20.366;2022-10-16T03:08:12;7.95;;;2.53;;
43793;SDS011;29414;44.798;20.366;2022-10-16T03:12:12;4.18;;;2.85;;
43793;SDS011;29414;44.798;20.366;2022-10-16T03:16:12;5.20;;;2.05;;
43793;SDS011;29414;44.798;20.366;2022-10-16T03:20:13;3.45;;;2.45;;
43793;SDS011;29414;44.798;20.366;2022-10-16T03:24:13;4.70;;;2.80;;
43793;SDS011;29414;44.798;20.366;2022-10-16T03:28:14;4.53;;;2.58;;
43793;SDS011;29414;44.798;20.366;2022-10-16T03:32:14;4.57;;;2.40;;
43793;SDS011;29414;44.798;20.366;2022-10-16T03:36:14;7.13;;;2.50;;
43793;SDS011;29414;44.798;20.366;2022-10-16T03:40:15;5.47;;;2.63;;
43793;SDS011;29414;44.798;20.366;2022-10-16T03:44:15;10.27;;;2.85;;
43793;SDS011;29414;44.798;20.366;2022-10-16T03:48:16;6.80;;;2.25;;
43793;SDS011;29414;44.798;20.366;2022-10-16T03:52:16;4.05;;;2.80;;
43793;SDS011;29414;44.798;20.366;2022-10-16T03:56:16;3.55;;;2.10;;
43793;SDS011;29414;44.798;20.366;2022-10-16T04:00:17;3.60;;;2.60;;
43793;SDS011;29414;44.798;20.366;2022-10-16T04:04:20;5.53;;;2.35;;
43793;SDS011;29414;44.798;20.366;2022-10-16T04:08:20;3.92;;;2.22;;
43793;SDS011;29414;44.798;20.366;2022-10-16T04:12:21;5.10;;;2.55;;
43793;SDS011;29414;44.798;20.366;2022-10-16T04:16:21;4.63;;;2.13;;
43793;SDS011;29414;44.798;20.366;2022-10-16T04:20:21;4.33;;;2.00;;
43793;SDS011;29414;44.798;20.366;2022-10-16T04:24:21;5.15;;;2.33;;
43793;SDS011;29414;44.798;20.366;2022-10-16T04:28:22;5.03;;;2.00;;
43793;SDS011;29414;44.798;20.366;2022-10-16T04:32:22;4.70;;;2.33;;
43793;SDS011;29414;44.798;20.366;2022-10-16T04:36:22;4.70;;;2.47;;
43793;SDS011;29414;44.798;20.366;2022-10-16T04:40:23;5.75;;;1.92;;
43793;SDS011;29414;44.798;20.366;2022-10-16T04:44:23;3.42;;;2.35;;
43793;SDS011;29414;44.798;20.366;2022-10-16T04:48:23;3.97;;;2.27;;
43793;SDS011;29414;44.798;20.366;2022-10-16T04:52:24;3.77;;;2.53;;
43793;SDS011;29414;44.798;20.366;2022-10-16T04:56:25;4.90;;;2.13;;
43793;SDS011;29414;44.798;20.366;2022-10-16T05:00:25;7.20;;;2.40;;
43793;SDS011;29414;44.798;20.366;2022-10-16T05:04:25;3.87;;;2.13;;
43793;SDS011;29414;44.798;20.366;2022-10-16T05:08:25;5.70;;;2.33;;
43793;SDS011;29414;44.798;20.366;2022-10-16T05:12:26;4.37;;;2.37;;
43793;SDS011;29414;44.798;20.366;2022-10-16T05:16:26;7.83;;;2.43;;
43793;SDS011;29414;44.798;20.366;2022-10-16T05:20:26;4.77;;;2.40;;
43793;SDS011;29414;44.798;20.366;2022-10-16T05:24:27;6.00;;;3.07;;
43793;SDS011;29414;44.798;20.366;2022-10-16T05:28:28;5.25;;;3.15;;
43793;SDS011;29414;44.798;20.366;2022-10-16T05:32:28;5.43;;;2.33;;
43793;SDS011;29414;44.798;20.366;2022-10-16T05:36:29;7.32;;;2.47;;
43793;SDS011;29414;44.798;20.366;2022-10-16T05:40:29;5.65;;;2.42;;
43793;SDS011;29414;44.798;20.366;2022-10-16T05:44:29;4.00;;;2.50;;
43793;SDS011;29414;44.798;20.366;2022-10-16T05:48:29;3.95;;;2.42;;
43793;SDS011;29414;44.798;20.366;2022-10-16T05:52:30;4.13;;;2.60;;
43793;SDS011;29414;44.798;20.366;2022-10-16T05:56:30;5.63;;;2.30;;
43793;SDS011;29414;44.798;20.366;2022-10-16T06:00:30;5.78;;;2.60;;
43793;SDS011;29414;44.798;20.366;2022-10-16T06:04:31;3.88;;;2.70;;
43793;SDS011;29414;44.798;20.366;2022-10-16T06:08:31;4.28;;;2.60;;
43793;SDS011;29414;44.798;20.366;2022-10-16T06:12:31;11.65;;;3.33;;
43793;SDS011;29414;44.798;20.366;2022-10-16T06:16:35;4.54;;;1.92;;
43793;SDS011;29414;44.798;20.366;2022-10-16T06:20:36;6.35;;;3.40;;
43793;SDS011;29414;44.798;20.366;2022-10-16T06:24:36;3.13;;;2.13;;
43793;SDS011;29414;44.798;20.366;2022-10-16T06:28:37;27.63;;;4.47;;
43793;SDS011;29414;44.798;20.366;2022-10-16T06:32:37;5.38;;;2.85;;
43793;SDS011;29414;44.798;20.366;2022-10-16T06:36:38;4.44;;;2.78;;
43793;SDS011;29414;44.798;20.366;2022-10-16T06:40:39;5.07;;;2.47;;
43793;SDS011;29414;44.798;20.366;2022-10-16T06:44:39;3.94;;;2.18;;
43793;SDS011;29414;44.798;20.366;2022-10-16T06:53:00;8.32;;;2.90;;
43793;SDS011;29414;44.798;20.366;2022-10-16T06:57:00;2.47;;;2.28;;
43793;SDS011;29414;44.798;20.366;2022-10-16T07:01:01;4.72;;;2.00;;
43793;SDS011;29414;44.798;20.366;2022-10-16T07:05:02;7.40;;;2.47;;
43793;SDS011;29414;44.798;20.366;2022-10-16T07:09:03;2.88;;;2.22;;
43793;SDS011;29414;44.798;20.366;2022-10-16T07:13:04;5.00;;;2.40;;
43793;SDS011;29414;44.798;20.366;2022-10-16T07:17:05;4.47;;;2.75;;
43793;SDS011;29414;44.798;20.366;2022-10-16T07:21:06;4.68;;;2.50;;
43793;SDS011;29414;44.798;20.366;2022-10-16T07:25:07;5.45;;;2.90;;
43793;SDS011;29414;44.798;20.366;2022-10-16T07:29:14;5.72;;;3.10;;
43793;SDS011;29414;44.798;20.366;2022-10-16T07:33:15;6.63;;;2.13;;
43793;SDS011;29414;44.798;20.366;2022-10-16T07:37:15;3.70;;;2.42;;
43793;SDS011;29414;44.798;20.366;2022-10-16T07:41:17;3.13;;;2.08;;
43793;SDS011;29414;44.798;20.366;2022-10-16T07:45:18;6.93;;;2.63;;
43793;SDS011;29414;44.798;20.366;2022-10-16T07:49:18;4.82;;;2.65;;
43793;SDS011;29414;44.798;20.366;2022-10-16T07:53:18;3.50;;;2.40;;
43793;SDS011;29414;44.798;20.366;2022-10-16T07:57:18;3.22;;;2.28;;
43793;SDS011;29414;44.798;20.366;2022-10-16T08:01:20;6.70;;;2.70;;
43793;SDS011;29414;44.798;20.366;2022-10-16T08:05:20;5.47;;;2.03;;
43793;SDS011;29414;44.798;20.366;2022-10-16T08:09:23;5.80;;;2.97;;
43793;SDS011;29414;44.798;20.366;2022-10-16T08:13:23;3.95;;;2.40;;
43793;SDS011;29414;44.798;20.366;2022-10-16T08:17:23;11.88;;;3.40;;
43793;SDS011;29414;44.798;20.366;2022-10-16T08:21:24;2.55;;;2.33;;
43793;SDS011;29414;44.798;20.366;2022-10-16T08:25:25;9.68;;;2.88;;
43793;SDS011;29414;44.798;20.366;2022-10-16T08:29:26;3.13;;;1.80;;
43793;SDS011;29414;44.798;20.366;2022-10-16T08:33:26;3.90;;;3.08;;
43793;SDS011;29414;44.798;20.366;2022-10-16T08:37:29;3.96;;;2.00;;
43793;SDS011;29414;44.798;20.366;2022-10-16T08:49:40;4.60;;;1.90;;
43793;SDS011;29414;44.798;20.366;2022-10-16T08:53:46;2.42;;;1.95;;
43793;SDS011;29414;44.798;20.366;2022-10-16T08:57:49;3.67;;;2.83;;
43793;SDS011;29414;44.798;20.366;2022-10-16T09:01:49;3.47;;;2.25;;
43793;SDS011;29414;44.798;20.366;2022-10-16T09:14:12;3.70;;;1.82;;
43793;SDS011;29414;44.798;20.366;2022-10-16T09:18:24;3.30;;;3.00;;
43793;SDS011;29414;44.798;20.366;2022-10-16T09:22:26;3.40;;;2.40;;
43793;SDS011;29414;44.798;20.366;2022-10-16T09:26:28;2.33;;;2.13;;
43793;SDS011;29414;44.798;20.366;2022-10-16T09:30:28;4.70;;;2.22;;
43793;SDS011;29414;44.798;20.366;2022-10-16T09:34:33;3.67;;;2.28;;
43793;SDS011;29414;44.798;20.366;2022-10-16T09:38:34;4.50;;;2.58;;
43793;SDS011;29414;44.798;20.366;2022-10-16T09:42:36;2.80;;;2.38;;
43793;SDS011;29414;44.798;20.366;2022-10-16T09:46:40;5.07;;;2.70;;
43793;SDS011;29414;44.798;20.366;2022-10-16T09:50:43;3.53;;;2.10;;
43793;SDS011;29414;44.798;20.366;2022-10-16T09:58:51;4.82;;;2.63;;
43793;SDS011;29414;44.798;20.366;2022-10-16T10:02:52;4.68;;;2.53;;
43793;SDS011;29414;44.798;20.366;2022-10-16T10:06:53;5.72;;;2.83;;
43793;SDS011;29414;44.798;20.366;2022-10-16T10:10:54;7.78;;;3.13;;
43793;SDS011;29414;44.798;20.366;2022-10-16T10:14:55;5.82;;;3.45;;
43793;SDS011;29414;44.798;20.366;2022-10-16T10:18:59;4.50;;;2.95;;
43793;SDS011;29414;44.798;20.366;2022-10-16T10:23:00;4.85;;;2.72;;
43793;SDS011;29414;44.798;20.366;2022-10-16T10:27:03;3.20;;;2.03;;
43793;SDS011;29414;44.798;20.366;2022-10-16T10:31:14;6.78;;;2.90;;
43793;SDS011;29414;44.798;20.366;2022-10-16T10:35:25;3.30;;;2.40;;
43793;SDS011;29414;44.798;20.366;2022-10-16T10:39:35;6.25;;;3.17;;
43793;SDS011;29414;44.798;20.366;2022-10-16T10:43:54;3.20;;;2.90;;
43793;SDS011;29414;44.798;20.366;2022-10-16T10:56:14;6.88;;;3.25;;
43793;SDS011;29414;44.798;20.366;2022-10-16T11:00:28;4.65;;;2.85;;
43793;SDS011;29414;44.798;20.366;2022-10-16T11:12:59;5.13;;;3.28;;
43793;SDS011;29414;44.798;20.366;2022-10-16T11:17:08;3.53;;;3.20;;
43793;SDS011;29414;44.798;20.366;2022-10-16T11:21:11;5.05;;;3.03;;
43793;SDS011;29414;44.798;20.366;2022-10-16T11:29:22;4.43;;;2.80;;
43793;SDS011;29414;44.798;20.366;2022-10-16T11:37:41;3.17;;;2.85;;
43793;SDS011;29414;44.798;20.366;2022-10-16T11:45:45;6.70;;;2.95;;
43793;SDS011;29414;44.798;20.366;2022-10-16T11:49:46;4.80;;;2.90;;
43793;SDS011;29414;44.798;20.366;2022-10-16T11:53:56;2.97;;;2.78;;
43793;SDS011;29414;44.798;20.366;2022-10-16T11:57:58;3.35;;;3.05;;
43793;SDS011;29414;44.798;20.366;2022-10-16T12:02:08;6.57;;;3.58;;
43793;SDS011;29414;44.798;20.366;2022-10-16T12:10:23;5.75;;;2.92;;
43793;SDS011;29414;44.798;20.366;2022-10-16T12:18:27;3.72;;;3.38;;
43793;SDS011;29414;44.798;20.366;2022-10-16T12:22:28;5.20;;;3.00;;
43793;SDS011;29414;44.798;20.366;2022-10-16T12:26:33;5.72;;;3.17;;
43793;SDS011;29414;44.798;20.366;2022-10-16T12:30:35;5.78;;;3.25;;
43793;SDS011;29414;44.798;20.366;2022-10-16T12:34:42;3.00;;;2.67;;
43793;SDS011;29414;44.798;20.366;2022-10-16T12:38:47;5.60;;;3.28;;
43793;SDS011;29414;44.798;20.366;2022-10-16T12:42:47;3.15;;;2.60;;
43793;SDS011;29414;44.798;20.366;2022-10-16T12:46:48;3.05;;;2.75;;
43793;SDS011;29414;44.798;20.366;2022-10-16T12:50:50;6.97;;;2.83;;
43793;SDS011;29414;44.798;20.366;2022-10-16T12:54:51;2.90;;;2.60;;
43793;SDS011;29414;44.798;20.366;2022-10-16T13:07:34;3.80;;;2.90;;
43793;SDS011;29414;44.798;20.366;2022-10-16T13:15:42;3.72;;;3.38;;
43793;SDS011;29414;44.798;20.366;2022-10-16T13:23:59;5.40;;;3.70;;
43793;SDS011;29414;44.798;20.366;2022-10-16T13:28:03;4.97;;;3.75;;
43793;SDS011;29414;44.798;20.366;2022-10-16T13:32:07;5.68;;;3.60;;
43793;SDS011;29414;44.798;20.366;2022-10-16T13:36:18;4.13;;;3.40;;
43793;SDS011;29414;44.798;20.366;2022-10-16T13:40:23;5.90;;;3.85;;
43793;SDS011;29414;44.798;20.366;2022-10-16T13:44:24;7.63;;;4.35;;
43793;SDS011;29414;44.798;20.366;2022-10-16T13:48:24;6.07;;;4.10;;
43793;SDS011;29414;44.798;20.366;2022-10-16T13:52:25;6.53;;;4.30;;
43793;SDS011;29414;44.798;20.366;2022-10-16T13:56:26;8.50;;;4.22;;
43793;SDS011;29414;44.798;20.366;2022-10-16T14:00:30;17.42;;;4.85;;
43793;SDS011;29414;44.798;20.366;2022-10-16T14:04:32;4.55;;;4.13;;
43793;SDS011;29414;44.798;20.366;2022-10-16T14:08:32;5.68;;;4.20;;
43793;SDS011;29414;44.798;20.366;2022-10-16T14:12:33;10.88;;;4.45;;
43793;SDS011;29414;44.798;20.366;2022-10-16T14:16:34;7.00;;;4.30;;
43793;SDS011;29414;44.798;20.366;2022-10-16T14:20:34;7.43;;;3.88;;
43793;SDS011;29414;44.798;20.366;2022-10-16T14:24:34;6.85;;;3.95;;
43793;SDS011;29414;44.798;20.366;2022-10-16T14:28:35;5.88;;;4.90;;
43793;SDS011;29414;44.798;20.366;2022-10-16T14:32:36;5.03;;;4.53;;
43793;SDS011;29414;44.798;20.366;2022-10-16T14:36:36;6.72;;;4.45;;
43793;SDS011;29414;44.798;20.366;2022-10-16T14:40:46;6.93;;;5.07;;
43793;SDS011;29414;44.798;20.366;2022-10-16T14:44:46;12.85;;;5.22;;
43793;SDS011;29414;44.798;20.366;2022-10-16T14:48:48;9.95;;;5.25;;
43793;SDS011;29414;44.798;20.366;2022-10-16T14:52:49;8.95;;;4.32;;
43793;SDS011;29414;44.798;20.366;2022-10-16T14:56:51;8.13;;;4.22;;
43793;SDS011;29414;44.798;20.366;2022-10-16T15:00:53;8.05;;;4.55;;
43793;SDS011;29414;44.798;20.366;2022-10-16T15:04:53;9.52;;;4.43;;
43793;SDS011;29414;44.798;20.366;2022-10-16T15:08:53;7.30;;;4.70;;
43793;SDS011;29414;44.798;20.366;2022-10-16T15:12:53;9.10;;;5.07;;
43793;SDS011;29414;44.798;20.366;2022-10-16T15:16:54;7.93;;;5.13;;
43793;SDS011;29414;44.798;20.366;2022-10-16T15:20:54;5.85;;;4.70;;
43793;SDS011;29414;44.798;20.366;2022-10-16T15:24:54;10.63;;;4.90;;
43793;SDS011;29414;44.798;20.366;2022-10-16T15:28:58;11.23;;;5.57;;
43793;SDS011;29414;44.798;20.366;2022-10-16T15:32:58;6.93;;;5.10;;
43793;SDS011;29414;44.798;20.366;2022-10-16T15:36:58;5.57;;;4.40;;
43793;SDS011;29414;44.798;20.366;2022-10-16T15:41:02;8.80;;;5.20;;
43793;SDS011;29414;44.798;20.366;2022-10-16T15:45:02;10.07;;;5.32;;
43793;SDS011;29414;44.798;20.366;2022-10-16T15:49:04;9.07;;;5.63;;
43793;SDS011;29414;44.798;20.366;2022-10-16T15:53:04;11.85;;;5.35;;
43793;SDS011;29414;44.798;20.366;2022-10-16T15:57:04;6.78;;;5.30;;
43793;SDS011;29414;44.798;20.366;2022-10-16T16:01:05;9.02;;;5.28;;
43793;SDS011;29414;44.798;20.366;2022-10-16T16:05:05;7.18;;;5.80;;
43793;SDS011;29414;44.798;20.366;2022-10-16T16:09:07;8.77;;;5.28;;
43793;SDS011;29414;44.798;20.366;2022-10-16T16:13:08;11.60;;;5.70;;
43793;SDS011;29414;44.798;20.366;2022-10-16T16:17:08;11.60;;;5.80;;
43793;SDS011;29414;44.798;20.366;2022-10-16T16:21:10;13.00;;;5.78;;
43793;SDS011;29414;44.798;20.366;2022-10-16T16:25:11;9.88;;;5.95;;
43793;SDS011;29414;44.798;20.366;2022-10-16T16:29:12;9.27;;;6.18;;
43793;SDS011;29414;44.798;20.366;2022-10-16T16:33:13;12.05;;;6.28;;
43793;SDS011;29414;44.798;20.366;2022-10-16T16:37:13;10.40;;;5.63;;
43793;SDS011;29414;44.798;20.366;2022-10-16T16:41:20;12.10;;;5.70;;
43793;SDS011;29414;44.798;20.366;2022-10-16T16:45:21;13.38;;;5.07;;
43793;SDS011;29414;44.798;20.366;2022-10-16T16:49:21;18.13;;;6.30;;
43793;SDS011;29414;44.798;20.366;2022-10-16T16:53:21;10.80;;;5.05;;
43793;SDS011;29414;44.798;20.366;2022-10-16T16:57:22;7.68;;;5.03;;
43793;SDS011;29414;44.798;20.366;2022-10-16T17:01:24;8.73;;;4.88;;
43793;SDS011;29414;44.798;20.366;2022-10-16T17:05:24;12.40;;;5.68;;
43793;SDS011;29414;44.798;20.366;2022-10-16T17:09:25;12.13;;;6.38;;
43793;SDS011;29414;44.798;20.366;2022-10-16T17:13:27;10.27;;;5.80;;
43793;SDS011;29414;44.798;20.366;2022-10-16T17:17:30;14.38;;;6.72;;
43793;SDS011;29414;44.798;20.366;2022-10-16T17:21:30;9.07;;;6.38;;
43793;SDS011;29414;44.798;20.366;2022-10-16T17:25:31;18.40;;;6.82;;
43793;SDS011;29414;44.798;20.366;2022-10-16T17:29:34;11.43;;;5.78;;
43793;SDS011;29414;44.798;20.366;2022-10-16T17:33:35;10.00;;;6.63;;
43793;SDS011;29414;44.798;20.366;2022-10-16T17:37:35;11.43;;;7.50;;
43793;SDS011;29414;44.798;20.366;2022-10-16T17:41:35;10.63;;;7.20;;
43793;SDS011;29414;44.798;20.366;2022-10-16T17:45:43;12.95;;;5.78;;
43793;SDS011;29414;44.798;20.366;2022-10-16T17:49:43;12.43;;;7.07;;
43793;SDS011;29414;44.798;20.366;2022-10-16T17:53:47;10.15;;;6.43;;
43793;SDS011;29414;44.798;20.366;2022-10-16T17:57:47;11.07;;;5.43;;
43793;SDS011;29414;44.798;20.366;2022-10-16T18:01:47;11.07;;;6.20;;
43793;SDS011;29414;44.798;20.366;2022-10-16T18:05:48;9.35;;;6.43;;
43793;SDS011;29414;44.798;20.366;2022-10-16T18:09:48;9.10;;;7.13;;
43793;SDS011;29414;44.798;20.366;2022-10-16T18:13:52;8.55;;;7.00;;
43793;SDS011;29414;44.798;20.366;2022-10-16T18:17:52;10.55;;;6.57;;
43793;SDS011;29414;44.798;20.366;2022-10-16T18:21:53;10.10;;;6.13;;
43793;SDS011;29414;44.798;20.366;2022-10-16T18:25:57;8.93;;;6.70;;
43793;SDS011;29414;44.798;20.366;2022-10-16T18:29:58;11.77;;;6.78;;
43793;SDS011;29414;44.798;20.366;2022-10-16T18:33:59;10.48;;;7.43;;
43793;SDS011;29414;44.798;20.366;2022-10-16T18:37:59;9.95;;;7.45;;
43793;SDS011;29414;44.798;20.366;2022-10-16T18:41:59;11.95;;;7.13;;
43793;SDS011;29414;44.798;20.366;2022-10-16T18:46:01;9.02;;;6.90;;
43793;SDS011;29414;44.798;20.366;2022-10-16T18:50:02;8.98;;;7.30;;
43793;SDS011;29414;44.798;20.366;2022-10-16T18:54:03;17.02;;;7.45;;
43793;SDS011;29414;44.798;20.366;2022-10-16T18:58:04;8.55;;;6.30;;
43793;SDS011;29414;44.798;20.366;2022-10-16T19:02:04;9.40;;;6.28;;
43793;SDS011;29414;44.798;20.366;2022-10-16T19:06:05;9.62;;;7.46;;
43793;SDS011;29414;44.798;20.366;2022-10-16T19:10:07;13.70;;;7.40;;
43793;SDS011;29414;44.798;20.366;2022-10-16T19:14:08;13.52;;;7.00;;
43793;SDS011;29414;44.798;20.366;2022-10-16T19:18:08;13.07;;;7.78;;
43793;SDS011;29414;44.798;20.366;2022-10-16T19:22:09;10.70;;;7.22;;
43793;SDS011;29414;44.798;20.366;2022-10-16T19:26:30;10.73;;;7.07;;
43793;SDS011;29414;44.798;20.366;2022-10-16T19:30:34;9.70;;;7.43;;
43793;SDS011;29414;44.798;20.366;2022-10-16T19:34:34;12.93;;;7.68;;
43793;SDS011;29414;44.798;20.366;2022-10-16T19:38:34;11.13;;;7.25;;
43793;SDS011;29414;44.798;20.366;2022-10-16T19:42:35;13.35;;;7.07;;
43793;SDS011;29414;44.798;20.366;2022-10-16T19:46:35;11.18;;;7.22;;
43793;SDS011;29414;44.798;20.366;2022-10-16T19:50:35;10.68;;;8.07;;
43793;SDS011;29414;44.798;20.366;2022-10-16T19:54:36;10.68;;;7.55;;
43793;SDS011;29414;44.798;20.366;2022-10-16T19:58:37;13.13;;;8.52;;
43793;SDS011;29414;44.798;20.366;2022-10-16T20:02:38;15.20;;;8.60;;
43793;SDS011;29414;44.798;20.366;2022-10-16T20:06:38;16.38;;;8.13;;
43793;SDS011;29414;44.798;20.366;2022-10-16T20:10:38;11.20;;;7.63;;
43793;SDS011;29414;44.798;20.366;2022-10-16T20:14:46;9.13;;;7.10;;
43793;SDS011;29414;44.798;20.366;2022-10-16T20:18:47;10.04;;;7.40;;
43793;SDS011;29414;44.798;20.366;2022-10-16T20:22:48;11.15;;;7.63;;
43793;SDS011;29414;44.798;20.366;2022-10-16T20:26:48;9.92;;;7.08;;
43793;SDS011;29414;44.798;20.366;2022-10-16T20:30:49;8.80;;;6.65;;
43793;SDS011;29414;44.798;20.366;2022-10-16T20:34:49;8.65;;;6.90;;
43793;SDS011;29414;44.798;20.366;2022-10-16T20:38:50;12.88;;;9.70;;
43793;SDS011;29414;44.798;20.366;2022-10-16T20:42:50;12.98;;;7.05;;
43793;SDS011;29414;44.798;20.366;2022-10-16T20:46:52;10.68;;;7.05;;
43793;SDS011;29414;44.798;20.366;2022-10-16T20:50:53;8.75;;;6.53;;
43793;SDS011;29414;44.798;20.366;2022-10-16T20:54:53;8.18;;;6.63;;
43793;SDS011;29414;44.798;20.366;2022-10-16T20:58:53;12.98;;;6.72;;
43793;SDS011;29414;44.798;20.366;2022-10-16T21:02:53;9.52;;;6.85;;
43793;SDS011;29414;44.798;20.366;2022-10-16T21:06:55;15.02;;;7.55;;
43793;SDS011;29414;44.798;20.366;2022-10-16T21:10:55;11.60;;;7.07;;
43793;SDS011;29414;44.798;20.366;2022-10-16T21:14:55;8.68;;;6.20;;
43793;SDS011;29414;44.798;20.366;2022-10-16T21:18:56;8.38;;;6.15;;
43793;SDS011;29414;44.798;20.366;2022-10-16T21:22:56;8.63;;;6.07;;
43793;SDS011;29414;44.798;20.366;2022-10-16T21:26:57;8.75;;;6.10;;
43793;SDS011;29414;44.798;20.366;2022-10-16T21:30:57;13.55;;;5.57;;
43793;SDS011;29414;44.798;20.366;2022-10-16T21:34:57;10.23;;;6.22;;
43793;SDS011;29414;44.798;20.366;2022-10-16T21:39:01;8.15;;;6.25;;
43793;SDS011;29414;44.798;20.366;2022-10-16T21:43:02;10.27;;;6.70;;
43793;SDS011;29414;44.798;20.366;2022-10-16T21:47:03;10.27;;;6.47;;
43793;SDS011;29414;44.798;20.366;2022-10-16T21:51:04;7.20;;;5.78;;
43793;SDS011;29414;44.798;20.366;2022-10-16T21:55:05;9.40;;;5.75;;
43793;SDS011;29414;44.798;20.366;2022-10-16T21:59:05;10.35;;;6.40;;
43793;SDS011;29414;44.798;20.366;2022-10-16T22:03:05;13.15;;;5.40;;
43793;SDS011;29414;44.798;20.366;2022-10-16T22:07:06;7.30;;;5.85;;
43793;SDS011;29414;44.798;20.366;2022-10-16T22:15:07;8.68;;;5.82;;
43793;SDS011;29414;44.798;20.366;2022-10-16T22:19:07;8.30;;;6.13;;
43793;SDS011;29414;44.798;20.366;2022-10-16T22:23:07;8.75;;;5.28;;
43793;SDS011;29414;44.798;20.366;2022-10-16T22:27:08;7.45;;;5.95;;
43793;SDS011;29414;44.798;20.366;2022-10-16T22:31:09;7.68;;;5.96;;
43793;SDS011;29414;44.798;20.366;2022-10-16T22:35:10;11.02;;;6.75;;
43793;SDS011;29414;44.798;20.366;2022-10-16T22:39:10;10.90;;;6.22;;
43793;SDS011;29414;44.798;20.366;2022-10-16T22:43:10;7.93;;;6.03;;
43793;SDS011;29414;44.798;20.366;2022-10-16T22:47:11;8.75;;;5.97;;
43793;SDS011;29414;44.798;20.366;2022-10-16T22:51:11;10.85;;;6.53;;
43793;SDS011;29414;44.798;20.366;2022-10-16T22:55:15;8.40;;;5.50;;
43793;SDS011;29414;44.798;20.366;2022-10-16T22:59:15;10.57;;;5.82;;
43793;SDS011;29414;44.798;20.366;2022-10-16T23:03:15;8.00;;;5.68;;
43793;SDS011;29414;44.798;20.366;2022-10-16T23:07:16;7.07;;;5.53;;
43793;SDS011;29414;44.798;20.366;2022-10-16T23:11:16;10.62;;;6.96;;
43793;SDS011;29414;44.798;20.366;2022-10-16T23:15:16;9.85;;;6.30;;
43793;SDS011;29414;44.798;20.366;2022-10-16T23:19:19;6.82;;;5.90;;
43793;SDS011;29414;44.798;20.366;2022-10-16T23:23:20;7.85;;;5.88;;
43793;SDS011;29414;44.798;20.366;2022-10-16T23:27:20;6.10;;;5.03;;
43793;SDS011;29414;44.798;20.366;2022-10-16T23:31:20;11.80;;;5.28;;
43793;SDS011;29414;44.798;20.366;2022-10-16T23:35:20;9.60;;;5.25;;
43793;SDS011;29414;44.798;20.366;2022-10-16T23:39:21;9.10;;;5.85;;
43793;SDS011;29414;44.798;20.366;2022-10-16T23:43:21;6.80;;;5.05;;
43793;SDS011;29414;44.798;20.366;2022-10-16T23:47:21;8.95;;;5.45;;
43793;SDS011;29414;44.798;20.366;2022-10-16T23:51:21;7.53;;;4.45;;
43793;SDS011;29414;44.798;20.366;2022-10-16T23:55:22;6.22;;;4.72;;
43793;SDS011;29414;44.798;20.366;2022-10-16T23:59:22;6.18;;;4.70;;
